sensor_id;sensor_type;location;lat;lon;timestamp;P1;durP1;ratioP1;P2;durP2;ratioP2
41627;SDS011;27321;50.816;6.054;2023-12-22T00:01:20;11.05;;;2.53;;
41627;SDS011;27321;50.816;6.054;2023-12-22T00:04:21;13.53;;;2.67;;
41627;SDS011;27321;50.816;6.054;2023-12-22T00:07:22;7.63;;;2.40;;
41627;SDS011;27321;50.816;6.054;2023-12-22T00:10:23;6.97;;;2.03;;
41627;SDS011;27321;50.816;6.054;2023-12-22T00:13:24;9.83;;;2.47;;
41627;SDS011;27321;50.816;6.054;2023-12-22T00:16:25;14.50;;;2.33;;
41627;SDS011;27321;50.816;6.054;2023-12-22T00:19:26;12.33;;;3.00;;
41627;SDS011;27321;50.816;6.054;2023-12-22T00:22:27;10.30;;;2.13;;
41627;SDS011;27321;50.816;6.054;2023-12-22T00:25:28;9.87;;;2.60;;
41627;SDS011;27321;50.816;6.054;2023-12-22T00:28:29;9.63;;;2.27;;
41627;SDS011;27321;50.816;6.054;2023-12-22T00:31:31;14.03;;;2.27;;
41627;SDS011;27321;50.816;6.054;2023-12-22T00:34:32;10.20;;;2.00;;
41627;SDS011;27321;50.816;6.054;2023-12-22T00:37:33;7.73;;;1.60;;
41627;SDS011;27321;50.816;6.054;2023-12-22T00:40:34;8.00;;;1.90;;
41627;SDS011;27321;50.816;6.054;2023-12-22T00:43:35;14.63;;;2.47;;
41627;SDS011;27321;50.816;6.054;2023-12-22T00:46:36;9.90;;;2.03;;
41627;SDS011;27321;50.816;6.054;2023-12-22T00:49:37;7.05;;;1.55;;
41627;SDS011;27321;50.816;6.054;2023-12-22T00:52:38;9.43;;;2.13;;
41627;SDS011;27321;50.816;6.054;2023-12-22T00:55:42;8.57;;;1.60;;
41627;SDS011;27321;50.816;6.054;2023-12-22T00:58:43;10.00;;;2.10;;
41627;SDS011;27321;50.816;6.054;2023-12-22T01:01:47;9.43;;;2.07;;
41627;SDS011;27321;50.816;6.054;2023-12-22T01:05:08;7.03;;;2.20;;
41627;SDS011;27321;50.816;6.054;2023-12-22T01:08:15;6.13;;;1.97;;
41627;SDS011;27321;50.816;6.054;2023-12-22T01:11:31;5.23;;;1.53;;
41627;SDS011;27321;50.816;6.054;2023-12-22T01:14:32;5.30;;;1.67;;
41627;SDS011;27321;50.816;6.054;2023-12-22T01:17:39;8.73;;;1.97;;
41627;SDS011;27321;50.816;6.054;2023-12-22T01:21:13;11.80;;;2.80;;
41627;SDS011;27321;50.816;6.054;2023-12-22T01:24:28;8.27;;;1.97;;
41627;SDS011;27321;50.816;6.054;2023-12-22T01:27:29;10.90;;;2.50;;
41627;SDS011;27321;50.816;6.054;2023-12-22T01:30:33;12.80;;;2.50;;
41627;SDS011;27321;50.816;6.054;2023-12-22T01:33:34;8.93;;;1.77;;
41627;SDS011;27321;50.816;6.054;2023-12-22T01:36:36;6.07;;;1.50;;
41627;SDS011;27321;50.816;6.054;2023-12-22T01:42:38;8.00;;;1.63;;
41627;SDS011;27321;50.816;6.054;2023-12-22T01:45:40;1.90;;;1.20;;
41627;SDS011;27321;50.816;6.054;2023-12-22T01:48:43;5.53;;;1.40;;
41627;SDS011;27321;50.816;6.054;2023-12-22T01:51:45;10.15;;;1.45;;
41627;SDS011;27321;50.816;6.054;2023-12-22T01:54:45;4.13;;;1.23;;
41627;SDS011;27321;50.816;6.054;2023-12-22T01:57:46;8.53;;;1.83;;
41627;SDS011;27321;50.816;6.054;2023-12-22T02:00:49;4.67;;;1.30;;
41627;SDS011;27321;50.816;6.054;2023-12-22T02:03:50;12.55;;;1.90;;
41627;SDS011;27321;50.816;6.054;2023-12-22T02:06:52;4.20;;;1.70;;
41627;SDS011;27321;50.816;6.054;2023-12-22T02:09:53;6.75;;;1.38;;
41627;SDS011;27321;50.816;6.054;2023-12-22T02:12:54;11.97;;;1.60;;
41627;SDS011;27321;50.816;6.054;2023-12-22T02:15:56;9.27;;;1.60;;
41627;SDS011;27321;50.816;6.054;2023-12-22T02:22:44;7.47;;;1.80;;
41627;SDS011;27321;50.816;6.054;2023-12-22T02:25:45;5.50;;;1.23;;
41627;SDS011;27321;50.816;6.054;2023-12-22T02:28:46;4.77;;;1.53;;
41627;SDS011;27321;50.816;6.054;2023-12-22T02:31:48;7.80;;;1.73;;
41627;SDS011;27321;50.816;6.054;2023-12-22T02:34:53;7.50;;;1.57;;
41627;SDS011;27321;50.816;6.054;2023-12-22T02:37:57;6.30;;;1.87;;
41627;SDS011;27321;50.816;6.054;2023-12-22T02:40:59;6.23;;;1.50;;
41627;SDS011;27321;50.816;6.054;2023-12-22T02:44:02;7.20;;;1.77;;
41627;SDS011;27321;50.816;6.054;2023-12-22T02:47:03;8.13;;;1.95;;
41627;SDS011;27321;50.816;6.054;2023-12-22T02:50:04;8.73;;;2.45;;
41627;SDS011;27321;50.816;6.054;2023-12-22T02:53:06;9.50;;;2.13;;
41627;SDS011;27321;50.816;6.054;2023-12-22T02:56:07;8.37;;;2.13;;
41627;SDS011;27321;50.816;6.054;2023-12-22T02:59:09;15.40;;;2.83;;
41627;SDS011;27321;50.816;6.054;2023-12-22T03:02:10;12.63;;;2.45;;
41627;SDS011;27321;50.816;6.054;2023-12-22T03:05:11;6.53;;;1.73;;
41627;SDS011;27321;50.816;6.054;2023-12-22T03:08:12;3.72;;;1.40;;
41627;SDS011;27321;50.816;6.054;2023-12-22T03:11:12;11.33;;;2.17;;
41627;SDS011;27321;50.816;6.054;2023-12-22T03:14:13;5.80;;;1.10;;
41627;SDS011;27321;50.816;6.054;2023-12-22T03:17:14;5.20;;;1.57;;
41627;SDS011;27321;50.816;6.054;2023-12-22T03:20:15;8.10;;;1.50;;
41627;SDS011;27321;50.816;6.054;2023-12-22T03:23:16;6.57;;;1.30;;
41627;SDS011;27321;50.816;6.054;2023-12-22T03:26:17;5.53;;;1.40;;
41627;SDS011;27321;50.816;6.054;2023-12-22T03:29:25;6.33;;;1.10;;
41627;SDS011;27321;50.816;6.054;2023-12-22T03:32:26;11.67;;;2.43;;
41627;SDS011;27321;50.816;6.054;2023-12-22T03:35:27;5.50;;;1.50;;
41627;SDS011;27321;50.816;6.054;2023-12-22T03:38:28;8.90;;;2.10;;
41627;SDS011;27321;50.816;6.054;2023-12-22T03:41:29;13.67;;;2.90;;
41627;SDS011;27321;50.816;6.054;2023-12-22T03:44:30;8.75;;;2.08;;
41627;SDS011;27321;50.816;6.054;2023-12-22T03:47:33;8.80;;;1.63;;
41627;SDS011;27321;50.816;6.054;2023-12-22T03:50:33;5.73;;;1.70;;
41627;SDS011;27321;50.816;6.054;2023-12-22T03:53:34;9.80;;;2.20;;
41627;SDS011;27321;50.816;6.054;2023-12-22T03:56:35;7.37;;;2.23;;
41627;SDS011;27321;50.816;6.054;2023-12-22T03:59:36;17.43;;;2.87;;
41627;SDS011;27321;50.816;6.054;2023-12-22T04:02:37;9.43;;;2.38;;
41627;SDS011;27321;50.816;6.054;2023-12-22T04:05:38;13.20;;;2.30;;
41627;SDS011;27321;50.816;6.054;2023-12-22T04:08:39;10.10;;;2.10;;
41627;SDS011;27321;50.816;6.054;2023-12-22T04:11:40;15.40;;;3.07;;
41627;SDS011;27321;50.816;6.054;2023-12-22T04:14:41;9.43;;;2.55;;
41627;SDS011;27321;50.816;6.054;2023-12-22T04:17:42;7.90;;;2.37;;
41627;SDS011;27321;50.816;6.054;2023-12-22T04:20:43;7.53;;;2.37;;
41627;SDS011;27321;50.816;6.054;2023-12-22T04:23:44;11.97;;;2.87;;
41627;SDS011;27321;50.816;6.054;2023-12-22T04:26:45;14.40;;;2.70;;
41627;SDS011;27321;50.816;6.054;2023-12-22T04:29:46;10.77;;;2.43;;
41627;SDS011;27321;50.816;6.054;2023-12-22T04:32:47;6.60;;;2.07;;
41627;SDS011;27321;50.816;6.054;2023-12-22T04:35:48;10.03;;;2.30;;
41627;SDS011;27321;50.816;6.054;2023-12-22T04:38:49;9.87;;;2.10;;
41627;SDS011;27321;50.816;6.054;2023-12-22T04:41:49;12.63;;;2.73;;
41627;SDS011;27321;50.816;6.054;2023-12-22T04:44:51;9.00;;;2.27;;
41627;SDS011;27321;50.816;6.054;2023-12-22T04:47:52;8.63;;;1.92;;
41627;SDS011;27321;50.816;6.054;2023-12-22T04:50:53;7.77;;;2.13;;
41627;SDS011;27321;50.816;6.054;2023-12-22T04:53:54;9.33;;;2.33;;
41627;SDS011;27321;50.816;6.054;2023-12-22T04:56:55;13.60;;;2.70;;
41627;SDS011;27321;50.816;6.054;2023-12-22T04:59:56;11.30;;;2.63;;
41627;SDS011;27321;50.816;6.054;2023-12-22T05:02:57;8.67;;;1.90;;
41627;SDS011;27321;50.816;6.054;2023-12-22T05:05:58;14.97;;;3.07;;
41627;SDS011;27321;50.816;6.054;2023-12-22T05:08:59;7.10;;;1.70;;
41627;SDS011;27321;50.816;6.054;2023-12-22T05:11:59;6.77;;;1.57;;
41627;SDS011;27321;50.816;6.054;2023-12-22T05:15:05;7.73;;;1.73;;
41627;SDS011;27321;50.816;6.054;2023-12-22T05:18:06;10.60;;;2.10;;
41627;SDS011;27321;50.816;6.054;2023-12-22T05:21:08;9.63;;;1.85;;
41627;SDS011;27321;50.816;6.054;2023-12-22T05:24:15;11.07;;;2.30;;
41627;SDS011;27321;50.816;6.054;2023-12-22T05:27:16;7.87;;;2.20;;
41627;SDS011;27321;50.816;6.054;2023-12-22T05:30:17;8.30;;;2.27;;
41627;SDS011;27321;50.816;6.054;2023-12-22T05:33:18;14.02;;;2.78;;
41627;SDS011;27321;50.816;6.054;2023-12-22T05:36:19;12.23;;;2.37;;
41627;SDS011;27321;50.816;6.054;2023-12-22T05:39:20;8.98;;;2.05;;
41627;SDS011;27321;50.816;6.054;2023-12-22T05:42:21;10.03;;;2.40;;
41627;SDS011;27321;50.816;6.054;2023-12-22T05:45:21;8.70;;;2.07;;
41627;SDS011;27321;50.816;6.054;2023-12-22T05:48:25;14.60;;;2.97;;
41627;SDS011;27321;50.816;6.054;2023-12-22T05:51:27;7.30;;;2.47;;
41627;SDS011;27321;50.816;6.054;2023-12-22T05:54:28;13.30;;;2.83;;
41627;SDS011;27321;50.816;6.054;2023-12-22T05:57:29;12.70;;;2.70;;
41627;SDS011;27321;50.816;6.054;2023-12-22T06:00:30;14.30;;;2.43;;
41627;SDS011;27321;50.816;6.054;2023-12-22T06:03:31;14.25;;;2.78;;
41627;SDS011;27321;50.816;6.054;2023-12-22T06:06:32;14.63;;;2.97;;
41627;SDS011;27321;50.816;6.054;2023-12-22T06:09:33;17.63;;;3.20;;
41627;SDS011;27321;50.816;6.054;2023-12-22T06:12:34;11.60;;;3.13;;
41627;SDS011;27321;50.816;6.054;2023-12-22T06:15:36;13.83;;;2.93;;
41627;SDS011;27321;50.816;6.054;2023-12-22T06:18:38;12.13;;;3.10;;
41627;SDS011;27321;50.816;6.054;2023-12-22T06:21:39;17.47;;;3.47;;
41627;SDS011;27321;50.816;6.054;2023-12-22T06:24:44;15.33;;;3.00;;
41627;SDS011;27321;50.816;6.054;2023-12-22T06:27:45;17.30;;;3.30;;
41627;SDS011;27321;50.816;6.054;2023-12-22T06:30:46;11.88;;;3.45;;
41627;SDS011;27321;50.816;6.054;2023-12-22T06:33:48;15.70;;;3.08;;
41627;SDS011;27321;50.816;6.054;2023-12-22T06:36:50;20.17;;;4.67;;
41627;SDS011;27321;50.816;6.054;2023-12-22T06:39:51;20.07;;;3.97;;
41627;SDS011;27321;50.816;6.054;2023-12-22T06:42:52;12.90;;;4.07;;
41627;SDS011;27321;50.816;6.054;2023-12-22T06:45:53;14.43;;;3.30;;
41627;SDS011;27321;50.816;6.054;2023-12-22T06:48:55;24.63;;;4.30;;
41627;SDS011;27321;50.816;6.054;2023-12-22T06:51:59;17.43;;;4.30;;
41627;SDS011;27321;50.816;6.054;2023-12-22T06:55:05;16.07;;;2.87;;
41627;SDS011;27321;50.816;6.054;2023-12-22T06:58:08;16.23;;;3.47;;
41627;SDS011;27321;50.816;6.054;2023-12-22T07:01:08;14.30;;;3.63;;
41627;SDS011;27321;50.816;6.054;2023-12-22T07:04:12;18.70;;;4.00;;
41627;SDS011;27321;50.816;6.054;2023-12-22T07:07:13;15.57;;;3.27;;
41627;SDS011;27321;50.816;6.054;2023-12-22T07:10:14;15.63;;;4.00;;
41627;SDS011;27321;50.816;6.054;2023-12-22T07:13:15;14.03;;;3.67;;
41627;SDS011;27321;50.816;6.054;2023-12-22T07:16:16;15.63;;;4.27;;
41627;SDS011;27321;50.816;6.054;2023-12-22T07:19:17;12.63;;;3.27;;
41627;SDS011;27321;50.816;6.054;2023-12-22T07:22:18;9.80;;;2.90;;
41627;SDS011;27321;50.816;6.054;2023-12-22T07:25:19;10.93;;;3.13;;
41627;SDS011;27321;50.816;6.054;2023-12-22T07:28:20;14.02;;;3.53;;
41627;SDS011;27321;50.816;6.054;2023-12-22T07:31:21;14.10;;;3.23;;
41627;SDS011;27321;50.816;6.054;2023-12-22T07:34:22;11.13;;;2.85;;
41627;SDS011;27321;50.816;6.054;2023-12-22T07:37:23;11.93;;;2.60;;
41627;SDS011;27321;50.816;6.054;2023-12-22T07:40:24;10.70;;;3.03;;
41627;SDS011;27321;50.816;6.054;2023-12-22T07:43:25;14.93;;;3.53;;
41627;SDS011;27321;50.816;6.054;2023-12-22T07:46:26;17.45;;;4.00;;
41627;SDS011;27321;50.816;6.054;2023-12-22T07:49:29;15.33;;;3.63;;
41627;SDS011;27321;50.816;6.054;2023-12-22T07:52:30;12.73;;;3.40;;
41627;SDS011;27321;50.816;6.054;2023-12-22T07:55:31;19.03;;;4.30;;
41627;SDS011;27321;50.816;6.054;2023-12-22T07:58:32;9.43;;;2.73;;
41627;SDS011;27321;50.816;6.054;2023-12-22T08:01:33;12.57;;;3.40;;
41627;SDS011;27321;50.816;6.054;2023-12-22T08:08:05;21.92;;;3.42;;
41627;SDS011;27321;50.816;6.054;2023-12-22T08:11:07;12.80;;;3.17;;
41627;SDS011;27321;50.816;6.054;2023-12-22T08:14:08;9.38;;;2.85;;
41627;SDS011;27321;50.816;6.054;2023-12-22T08:17:09;13.57;;;3.22;;
41627;SDS011;27321;50.816;6.054;2023-12-22T08:20:10;13.67;;;3.43;;
41627;SDS011;27321;50.816;6.054;2023-12-22T08:23:11;13.05;;;3.03;;
41627;SDS011;27321;50.816;6.054;2023-12-22T08:26:12;15.37;;;3.20;;
41627;SDS011;27321;50.816;6.054;2023-12-22T08:29:17;14.70;;;3.23;;
41627;SDS011;27321;50.816;6.054;2023-12-22T08:32:19;18.67;;;3.53;;
41627;SDS011;27321;50.816;6.054;2023-12-22T08:35:20;12.50;;;2.80;;
41627;SDS011;27321;50.816;6.054;2023-12-22T08:38:21;10.90;;;2.47;;
41627;SDS011;27321;50.816;6.054;2023-12-22T08:41:22;12.27;;;2.87;;
41627;SDS011;27321;50.816;6.054;2023-12-22T08:44:23;12.18;;;2.47;;
41627;SDS011;27321;50.816;6.054;2023-12-22T08:47:24;13.03;;;2.63;;
41627;SDS011;27321;50.816;6.054;2023-12-22T08:50:25;10.38;;;2.53;;
41627;SDS011;27321;50.816;6.054;2023-12-22T08:53:26;9.37;;;2.37;;
41627;SDS011;27321;50.816;6.054;2023-12-22T08:56:30;11.90;;;2.50;;
41627;SDS011;27321;50.816;6.054;2023-12-22T08:59:31;9.80;;;2.60;;
41627;SDS011;27321;50.816;6.054;2023-12-22T09:02:32;6.53;;;2.37;;
41627;SDS011;27321;50.816;6.054;2023-12-22T09:05:33;8.90;;;2.30;;
41627;SDS011;27321;50.816;6.054;2023-12-22T09:08:34;5.88;;;2.08;;
41627;SDS011;27321;50.816;6.054;2023-12-22T09:11:35;8.88;;;2.50;;
41627;SDS011;27321;50.816;6.054;2023-12-22T09:14:36;7.57;;;2.08;;
41627;SDS011;27321;50.816;6.054;2023-12-22T09:17:46;8.23;;;2.27;;
41627;SDS011;27321;50.816;6.054;2023-12-22T09:20:47;5.03;;;2.20;;
41627;SDS011;27321;50.816;6.054;2023-12-22T09:23:49;6.78;;;1.90;;
41627;SDS011;27321;50.816;6.054;2023-12-22T09:26:50;5.75;;;2.15;;
41627;SDS011;27321;50.816;6.054;2023-12-22T09:29:52;4.60;;;1.67;;
41627;SDS011;27321;50.816;6.054;2023-12-22T09:32:53;7.50;;;1.90;;
41627;SDS011;27321;50.816;6.054;2023-12-22T09:35:54;4.53;;;2.10;;
41627;SDS011;27321;50.816;6.054;2023-12-22T09:38:54;5.63;;;1.63;;
41627;SDS011;27321;50.816;6.054;2023-12-22T09:41:55;7.97;;;2.40;;
41627;SDS011;27321;50.816;6.054;2023-12-22T09:44:56;4.83;;;2.00;;
41627;SDS011;27321;50.816;6.054;2023-12-22T09:48:04;3.77;;;1.90;;
41627;SDS011;27321;50.816;6.054;2023-12-22T09:51:07;4.43;;;1.80;;
41627;SDS011;27321;50.816;6.054;2023-12-22T09:54:09;5.53;;;1.97;;
41627;SDS011;27321;50.816;6.054;2023-12-22T09:57:11;5.07;;;1.65;;
41627;SDS011;27321;50.816;6.054;2023-12-22T10:00:12;7.40;;;1.70;;
41627;SDS011;27321;50.816;6.054;2023-12-22T10:03:15;3.77;;;1.40;;
41627;SDS011;27321;50.816;6.054;2023-12-22T10:06:16;3.45;;;1.25;;
41627;SDS011;27321;50.816;6.054;2023-12-22T10:09:17;3.53;;;1.50;;
41627;SDS011;27321;50.816;6.054;2023-12-22T10:12:20;3.13;;;1.53;;
41627;SDS011;27321;50.816;6.054;2023-12-22T10:15:22;2.57;;;1.50;;
41627;SDS011;27321;50.816;6.054;2023-12-22T10:18:26;3.00;;;1.73;;
41627;SDS011;27321;50.816;6.054;2023-12-22T10:21:27;3.47;;;1.60;;
41627;SDS011;27321;50.816;6.054;2023-12-22T10:24:43;3.87;;;1.73;;
41627;SDS011;27321;50.816;6.054;2023-12-22T10:27:52;4.05;;;2.00;;
41627;SDS011;27321;50.816;6.054;2023-12-22T10:30:54;2.85;;;1.65;;
41627;SDS011;27321;50.816;6.054;2023-12-22T10:33:59;5.07;;;1.80;;
41627;SDS011;27321;50.816;6.054;2023-12-22T10:37:03;2.17;;;1.90;;
41627;SDS011;27321;50.816;6.054;2023-12-22T10:43:09;2.03;;;1.47;;
41627;SDS011;27321;50.816;6.054;2023-12-22T10:46:19;2.67;;;1.87;;
41627;SDS011;27321;50.816;6.054;2023-12-22T10:49:21;3.63;;;1.67;;
41627;SDS011;27321;50.816;6.054;2023-12-22T10:52:23;2.63;;;1.77;;
41627;SDS011;27321;50.816;6.054;2023-12-22T10:58:26;2.77;;;1.30;;
41627;SDS011;27321;50.816;6.054;2023-12-22T11:01:29;2.73;;;1.50;;
41627;SDS011;27321;50.816;6.054;2023-12-22T11:04:34;3.60;;;1.57;;
41627;SDS011;27321;50.816;6.054;2023-12-22T11:07:37;2.27;;;1.53;;
41627;SDS011;27321;50.816;6.054;2023-12-22T11:10:42;4.67;;;1.50;;
41627;SDS011;27321;50.816;6.054;2023-12-22T11:13:44;5.20;;;1.77;;
41627;SDS011;27321;50.816;6.054;2023-12-22T11:16:46;1.55;;;1.13;;
41627;SDS011;27321;50.816;6.054;2023-12-22T11:19:49;1.00;;;0.90;;
41627;SDS011;27321;50.816;6.054;2023-12-22T11:22:53;2.40;;;0.90;;
41627;SDS011;27321;50.816;6.054;2023-12-22T11:25:57;3.27;;;1.50;;
41627;SDS011;27321;50.816;6.054;2023-12-22T11:29:02;2.97;;;1.50;;
41627;SDS011;27321;50.816;6.054;2023-12-22T11:32:03;4.13;;;1.38;;
41627;SDS011;27321;50.816;6.054;2023-12-22T11:35:07;2.47;;;1.57;;
41627;SDS011;27321;50.816;6.054;2023-12-22T11:38:09;2.25;;;1.42;;
41627;SDS011;27321;50.816;6.054;2023-12-22T11:41:18;1.77;;;1.23;;
41627;SDS011;27321;50.816;6.054;2023-12-22T11:44:24;3.77;;;1.60;;
41627;SDS011;27321;50.816;6.054;2023-12-22T11:47:26;2.00;;;1.80;;
41627;SDS011;27321;50.816;6.054;2023-12-22T11:50:29;3.53;;;1.60;;
41627;SDS011;27321;50.816;6.054;2023-12-22T11:53:30;2.13;;;1.60;;
41627;SDS011;27321;50.816;6.054;2023-12-22T11:56:34;2.17;;;1.60;;
41627;SDS011;27321;50.816;6.054;2023-12-22T11:59:36;1.87;;;1.57;;
41627;SDS011;27321;50.816;6.054;2023-12-22T12:02:38;4.03;;;1.53;;
41627;SDS011;27321;50.816;6.054;2023-12-22T12:05:42;3.47;;;1.70;;
41627;SDS011;27321;50.816;6.054;2023-12-22T12:08:43;2.90;;;1.27;;
41627;SDS011;27321;50.816;6.054;2023-12-22T12:18:14;3.43;;;1.60;;
41627;SDS011;27321;50.816;6.054;2023-12-22T12:21:15;3.93;;;1.53;;
41627;SDS011;27321;50.816;6.054;2023-12-22T12:24:17;3.67;;;1.60;;
41627;SDS011;27321;50.816;6.054;2023-12-22T12:27:25;2.77;;;1.37;;
41627;SDS011;27321;50.816;6.054;2023-12-22T12:30:28;5.40;;;1.70;;
41627;SDS011;27321;50.816;6.054;2023-12-22T12:33:31;3.47;;;1.40;;
41627;SDS011;27321;50.816;6.054;2023-12-22T12:36:32;4.35;;;1.90;;
41627;SDS011;27321;50.816;6.054;2023-12-22T12:39:34;2.85;;;1.40;;
41627;SDS011;27321;50.816;6.054;2023-12-22T12:42:36;2.60;;;1.45;;
41627;SDS011;27321;50.816;6.054;2023-12-22T12:45:40;1.50;;;1.20;;
41627;SDS011;27321;50.816;6.054;2023-12-22T12:48:43;2.10;;;1.33;;
41627;SDS011;27321;50.816;6.054;2023-12-22T12:51:46;2.33;;;1.27;;
41627;SDS011;27321;50.816;6.054;2023-12-22T12:54:48;1.37;;;1.20;;
41627;SDS011;27321;50.816;6.054;2023-12-22T12:57:49;1.90;;;1.60;;
41627;SDS011;27321;50.816;6.054;2023-12-22T13:00:51;2.73;;;1.67;;
41627;SDS011;27321;50.816;6.054;2023-12-22T13:03:56;1.23;;;1.10;;
41627;SDS011;27321;50.816;6.054;2023-12-22T13:09:59;2.40;;;1.13;;
41627;SDS011;27321;50.816;6.054;2023-12-22T13:13:02;2.17;;;1.07;;
41627;SDS011;27321;50.816;6.054;2023-12-22T13:16:03;2.33;;;1.10;;
41627;SDS011;27321;50.816;6.054;2023-12-22T13:19:04;2.35;;;1.25;;
41627;SDS011;27321;50.816;6.054;2023-12-22T13:22:06;2.00;;;1.10;;
41627;SDS011;27321;50.816;6.054;2023-12-22T13:25:07;3.63;;;1.70;;
41627;SDS011;27321;50.816;6.054;2023-12-22T13:28:09;3.37;;;1.33;;
41627;SDS011;27321;50.816;6.054;2023-12-22T13:31:10;4.15;;;1.25;;
41627;SDS011;27321;50.816;6.054;2023-12-22T13:34:14;5.80;;;1.73;;
41627;SDS011;27321;50.816;6.054;2023-12-22T13:37:15;3.03;;;1.07;;
41627;SDS011;27321;50.816;6.054;2023-12-22T13:40:16;3.28;;;1.10;;
41627;SDS011;27321;50.816;6.054;2023-12-22T13:43:17;3.22;;;1.05;;
41627;SDS011;27321;50.816;6.054;2023-12-22T13:46:18;2.20;;;1.30;;
41627;SDS011;27321;50.816;6.054;2023-12-22T13:49:19;1.48;;;0.88;;
41627;SDS011;27321;50.816;6.054;2023-12-22T13:52:27;5.03;;;1.40;;
41627;SDS011;27321;50.816;6.054;2023-12-22T13:55:38;1.53;;;1.07;;
41627;SDS011;27321;50.816;6.054;2023-12-22T13:58:45;1.20;;;0.70;;
41627;SDS011;27321;50.816;6.054;2023-12-22T14:01:47;2.80;;;0.90;;
41627;SDS011;27321;50.816;6.054;2023-12-22T14:04:51;2.60;;;1.03;;
41627;SDS011;27321;50.816;6.054;2023-12-22T14:07:55;1.53;;;0.90;;
41627;SDS011;27321;50.816;6.054;2023-12-22T14:10:56;3.57;;;0.90;;
41627;SDS011;27321;50.816;6.054;2023-12-22T14:13:57;1.97;;;0.90;;
41627;SDS011;27321;50.816;6.054;2023-12-22T14:16:58;1.90;;;0.97;;
41627;SDS011;27321;50.816;6.054;2023-12-22T14:20:02;3.30;;;1.47;;
41627;SDS011;27321;50.816;6.054;2023-12-22T14:23:09;2.90;;;1.00;;
41627;SDS011;27321;50.816;6.054;2023-12-22T14:26:12;3.73;;;1.30;;
41627;SDS011;27321;50.816;6.054;2023-12-22T14:29:13;5.00;;;0.95;;
41627;SDS011;27321;50.816;6.054;2023-12-22T14:32:14;3.05;;;1.08;;
41627;SDS011;27321;50.816;6.054;2023-12-22T14:35:15;2.70;;;0.90;;
41627;SDS011;27321;50.816;6.054;2023-12-22T14:38:16;4.20;;;1.27;;
41627;SDS011;27321;50.816;6.054;2023-12-22T14:41:17;3.35;;;0.90;;
41627;SDS011;27321;50.816;6.054;2023-12-22T14:44:18;3.80;;;1.50;;
41627;SDS011;27321;50.816;6.054;2023-12-22T14:47:19;1.67;;;1.30;;
41627;SDS011;27321;50.816;6.054;2023-12-22T14:50:21;2.58;;;1.27;;
41627;SDS011;27321;50.816;6.054;2023-12-22T14:53:24;4.40;;;1.80;;
41627;SDS011;27321;50.816;6.054;2023-12-22T14:56:28;4.17;;;1.67;;
41627;SDS011;27321;50.816;6.054;2023-12-22T14:59:29;3.00;;;1.40;;
41627;SDS011;27321;50.816;6.054;2023-12-22T15:02:30;3.40;;;1.40;;
41627;SDS011;27321;50.816;6.054;2023-12-22T15:05:49;5.03;;;1.60;;
41627;SDS011;27321;50.816;6.054;2023-12-22T15:08:50;2.83;;;1.42;;
41627;SDS011;27321;50.816;6.054;2023-12-22T15:11:55;3.20;;;1.50;;
41627;SDS011;27321;50.816;6.054;2023-12-22T15:14:56;3.23;;;1.60;;
41627;SDS011;27321;50.816;6.054;2023-12-22T15:17:57;3.37;;;1.70;;
41627;SDS011;27321;50.816;6.054;2023-12-22T15:20:58;5.57;;;1.40;;
41627;SDS011;27321;50.816;6.054;2023-12-22T15:23:59;5.22;;;1.88;;
41627;SDS011;27321;50.816;6.054;2023-12-22T15:27:02;2.20;;;1.20;;
41627;SDS011;27321;50.816;6.054;2023-12-22T15:30:04;3.83;;;1.38;;
41627;SDS011;27321;50.816;6.054;2023-12-22T15:33:06;4.20;;;1.50;;
41627;SDS011;27321;50.816;6.054;2023-12-22T15:36:07;4.90;;;1.10;;
41627;SDS011;27321;50.816;6.054;2023-12-22T15:39:11;5.10;;;1.57;;
41627;SDS011;27321;50.816;6.054;2023-12-22T15:42:12;2.93;;;1.37;;
41627;SDS011;27321;50.816;6.054;2023-12-22T15:45:13;5.18;;;1.33;;
41627;SDS011;27321;50.816;6.054;2023-12-22T15:48:15;3.33;;;1.27;;
41627;SDS011;27321;50.816;6.054;2023-12-22T15:51:16;4.72;;;1.00;;
41627;SDS011;27321;50.816;6.054;2023-12-22T15:54:19;1.67;;;1.20;;
41627;SDS011;27321;50.816;6.054;2023-12-22T15:57:20;3.13;;;1.57;;
41627;SDS011;27321;50.816;6.054;2023-12-22T16:00:21;5.37;;;1.83;;
41627;SDS011;27321;50.816;6.054;2023-12-22T16:03:26;2.35;;;1.50;;
41627;SDS011;27321;50.816;6.054;2023-12-22T16:06:27;4.10;;;2.30;;
41627;SDS011;27321;50.816;6.054;2023-12-22T16:09:28;4.67;;;1.63;;
41627;SDS011;27321;50.816;6.054;2023-12-22T16:12:29;7.90;;;2.30;;
41627;SDS011;27321;50.816;6.054;2023-12-22T16:15:29;6.83;;;1.80;;
41627;SDS011;27321;50.816;6.054;2023-12-22T16:18:30;2.67;;;1.27;;
41627;SDS011;27321;50.816;6.054;2023-12-22T16:21:32;1.85;;;1.10;;
41627;SDS011;27321;50.816;6.054;2023-12-22T16:24:33;8.25;;;1.20;;
41627;SDS011;27321;50.816;6.054;2023-12-22T16:27:39;3.83;;;1.50;;
41627;SDS011;27321;50.816;6.054;2023-12-22T16:30:40;5.03;;;1.70;;
41627;SDS011;27321;50.816;6.054;2023-12-22T16:33:52;3.00;;;1.70;;
41627;SDS011;27321;50.816;6.054;2023-12-22T16:42:57;7.77;;;1.60;;
41627;SDS011;27321;50.816;6.054;2023-12-22T16:46:14;7.75;;;1.70;;
41627;SDS011;27321;50.816;6.054;2023-12-22T16:49:25;5.53;;;1.43;;
41627;SDS011;27321;50.816;6.054;2023-12-22T16:52:58;4.13;;;1.50;;
41627;SDS011;27321;50.816;6.054;2023-12-22T16:56:24;3.43;;;1.50;;
41627;SDS011;27321;50.816;6.054;2023-12-22T16:59:29;3.03;;;1.20;;
41627;SDS011;27321;50.816;6.054;2023-12-22T17:02:53;6.03;;;1.37;;
41627;SDS011;27321;50.816;6.054;2023-12-22T17:06:17;5.27;;;1.50;;
41627;SDS011;27321;50.816;6.054;2023-12-22T17:09:18;3.47;;;1.20;;
41627;SDS011;27321;50.816;6.054;2023-12-22T17:12:20;2.75;;;1.30;;
41627;SDS011;27321;50.816;6.054;2023-12-22T17:15:23;2.83;;;1.13;;
41627;SDS011;27321;50.816;6.054;2023-12-22T17:18:30;2.60;;;1.20;;
41627;SDS011;27321;50.816;6.054;2023-12-22T17:21:37;4.30;;;1.00;;
41627;SDS011;27321;50.816;6.054;2023-12-22T17:24:42;4.77;;;1.73;;
41627;SDS011;27321;50.816;6.054;2023-12-22T17:27:44;7.10;;;1.50;;
41627;SDS011;27321;50.816;6.054;2023-12-22T17:30:48;3.13;;;0.97;;
41627;SDS011;27321;50.816;6.054;2023-12-22T17:33:52;4.70;;;1.60;;
41627;SDS011;27321;50.816;6.054;2023-12-22T17:36:56;4.67;;;1.00;;
41627;SDS011;27321;50.816;6.054;2023-12-22T17:40:10;4.03;;;1.40;;
41627;SDS011;27321;50.816;6.054;2023-12-22T17:43:12;1.87;;;1.00;;
41627;SDS011;27321;50.816;6.054;2023-12-22T17:46:20;9.33;;;1.57;;
41627;SDS011;27321;50.816;6.054;2023-12-22T17:49:28;4.13;;;1.00;;
41627;SDS011;27321;50.816;6.054;2023-12-22T17:52:35;2.30;;;0.93;;
41627;SDS011;27321;50.816;6.054;2023-12-22T17:55:40;5.50;;;1.27;;
41627;SDS011;27321;50.816;6.054;2023-12-22T17:59:24;4.20;;;1.10;;
41627;SDS011;27321;50.816;6.054;2023-12-22T18:02:39;3.43;;;1.00;;
41627;SDS011;27321;50.816;6.054;2023-12-22T18:05:50;3.00;;;1.10;;
41627;SDS011;27321;50.816;6.054;2023-12-22T18:08:59;4.23;;;1.67;;
41627;SDS011;27321;50.816;6.054;2023-12-22T18:12:03;5.38;;;1.30;;
41627;SDS011;27321;50.816;6.054;2023-12-22T18:15:06;1.67;;;1.03;;
41627;SDS011;27321;50.816;6.054;2023-12-22T18:18:11;5.33;;;1.13;;
41627;SDS011;27321;50.816;6.054;2023-12-22T18:21:40;5.00;;;0.80;;
41627;SDS011;27321;50.816;6.054;2023-12-22T18:24:44;6.77;;;1.13;;
41627;SDS011;27321;50.816;6.054;2023-12-22T18:27:45;5.97;;;1.20;;
41627;SDS011;27321;50.816;6.054;2023-12-22T18:30:46;4.15;;;1.23;;
41627;SDS011;27321;50.816;6.054;2023-12-22T18:33:52;1.33;;;0.93;;
41627;SDS011;27321;50.816;6.054;2023-12-22T18:36:57;3.90;;;1.17;;
41627;SDS011;27321;50.816;6.054;2023-12-22T18:39:58;7.77;;;1.30;;
41627;SDS011;27321;50.816;6.054;2023-12-22T18:42:59;6.10;;;1.13;;
41627;SDS011;27321;50.816;6.054;2023-12-22T18:46:02;7.50;;;1.17;;
41627;SDS011;27321;50.816;6.054;2023-12-22T18:49:06;5.90;;;1.10;;